Time;durP1;ratioP1;P1;durP2;ratioP2;P2;SDS_P1;SDS_P2;PMS_P1;PMS_P2;Temp;Humidity;BMP_temperature;BMP_pressure;BME280_temperature;BME280_humidity;BME280_pressure;Samples;Min_cycle;Max_cycle;Signal;HPM_P1;HPM_P2
2023/09/10 04:00:49;;;;;;;3.75;3.15;;;15.70;97.30;;;;;;6062748;23;20749;31
2023/09/10 04:03:14;;;;;;;4.53;3.67;;;15.80;97.30;;;;;;4963717;28;20500;-88
2023/09/10 04:05:40;;;;;;;5.93;2.60;;;15.90;97.30;;;;;;4949595;29;20427;-87
2023/09/10 04:08:06;;;;;;;6.70;3.60;;;15.90;97.30;;;;;;4949582;28;20662;-88
2023/09/10 04:10:31;;;;;;;6.20;3.33;;;16.00;97.30;;;;;;4951469;28;20279;-87
2023/09/10 04:12:57;;;;;;;4.20;3.87;;;16.00;97.30;;;;;;4952882;28;20642;-87
2023/09/10 04:15:22;;;;;;;9.07;4.47;;;15.90;97.30;;;;;;4969015;28;20222;-88
2023/09/10 04:17:48;;;;;;;3.30;3.13;;;15.90;97.30;;;;;;4952819;28;20712;-87
2023/09/10 04:20:13;;;;;;;3.50;3.30;;;15.90;97.30;;;;;;4952448;28;20183;-87
2023/09/10 04:22:39;;;;;;;9.60;2.17;;;15.90;97.30;;;;;;4952525;29;20203;-88
2023/09/10 04:25:05;;;;;;;3.93;3.23;;;15.80;97.30;;;;;;4952372;28;20203;-87
2023/09/10 04:27:30;;;;;;;3.33;2.63;;;15.70;97.30;;;;;;4953738;28;20428;-87
2023/09/10 04:29:57;;;;;;;3.20;3.00;;;15.60;97.30;;;;;;4956444;28;20415;-87
2023/09/10 04:32:23;;;;;;;3.30;1.60;;;15.60;97.30;;;;;;4953401;28;20235;-87
2023/09/10 04:34:48;;;;;;;3.27;2.83;;;15.60;97.30;;;;;;4949475;29;20464;-87
2023/09/10 04:37:14;;;;;;;3.17;2.90;;;15.60;97.30;;;;;;4966071;28;20175;-88
2023/09/10 04:39:39;;;;;;;5.57;4.00;;;15.50;97.30;;;;;;4952726;28;20205;-88
2023/09/10 04:42:05;;;;;;;2.63;2.43;;;15.50;97.30;;;;;;4952336;28;20199;-86
2023/09/10 04:44:30;;;;;;;4.40;2.43;;;15.40;97.30;;;;;;4952144;29;20202;-88
2023/09/10 04:46:56;;;;;;;2.77;2.60;;;15.40;97.30;;;;;;4952321;29;20261;-88
2023/09/10 04:49:23;;;;;;;3.17;2.97;;;15.40;97.30;;;;;;4951950;28;20225;-87
2023/09/10 04:51:48;;;;;;;2.90;2.60;;;15.50;97.30;;;;;;4952069;29;20218;-89
2023/09/10 04:54:13;;;;;;;7.00;3.33;;;15.60;97.30;;;;;;4951687;29;20438;-88
2023/09/10 04:56:39;;;;;;;3.37;2.80;;;15.70;97.30;;;;;;4951617;28;20638;-88
2023/09/10 04:59:05;;;;;;;7.23;4.60;;;15.70;97.30;;;;;;4954967;29;20191;-88
2023/09/10 05:01:30;;;;;;;9.63;4.40;;;15.60;97.30;;;;;;4956159;29;20234;-88
2023/09/10 05:03:56;;;;;;;4.50;2.30;;;15.60;97.30;;;;;;4955871;28;20199;-87
2023/09/10 05:06:21;;;;;;;3.27;2.90;;;15.50;97.30;;;;;;4956944;28;20190;-87
2023/09/10 05:08:47;;;;;;;2.50;2.30;;;15.50;97.30;;;;;;4956333;28;20270;-87
2023/09/10 05:11:14;;;;;;;4.33;3.33;;;15.50;97.30;;;;;;4955999;28;20293;-87
2023/09/10 05:13:40;;;;;;;3.10;2.37;;;15.60;97.30;;;;;;4971489;28;20183;-87
2023/09/10 05:16:05;;;;;;;7.53;2.73;;;15.70;97.30;;;;;;4955966;29;20501;-87
2023/09/10 05:18:31;;;;;;;4.57;3.53;;;15.80;97.30;;;;;;4970682;28;20582;-88
2023/09/10 05:20:56;;;;;;;5.83;2.90;;;15.90;97.30;;;;;;4970727;28;20218;-87
2023/09/10 05:23:23;;;;;;;13.80;6.03;;;15.90;97.30;;;;;;4953852;28;20179;-87
2023/09/10 05:25:49;;;;;;;2.30;2.13;;;16.00;97.30;;;;;;4951248;28;20187;-87
2023/09/10 05:28:15;;;;;;;3.83;2.60;;;16.00;97.30;;;;;;4952562;28;20721;-87
2023/09/10 05:30:41;;;;;;;7.73;3.80;;;16.00;97.30;;;;;;4951454;28;20443;-88
2023/09/10 05:33:07;;;;;;;5.00;2.97;;;16.00;97.30;;;;;;4951748;28;20909;-88
2023/09/10 05:35:32;;;;;;;5.03;2.90;;;16.00;97.30;;;;;;4952463;28;20566;-87
2023/09/10 05:37:58;;;;;;;3.33;2.70;;;16.00;97.30;;;;;;4951397;28;20183;-87
2023/09/10 05:40:25;;;;;;;4.67;2.83;;;15.90;97.30;;;;;;4951341;28;20262;-87
2023/09/10 05:42:50;;;;;;;3.43;2.90;;;15.90;97.30;;;;;;4951653;28;20684;-87
2023/09/10 05:45:16;;;;;;;4.50;3.03;;;16.00;97.30;;;;;;4951139;29;20462;-87
2023/09/10 05:47:41;;;;;;;4.70;2.80;;;16.10;97.30;;;;;;4952858;28;20258;-87
2023/09/10 05:50:07;;;;;;;4.77;2.73;;;16.20;97.30;;;;;;4945051;28;20184;-87
2023/09/10 05:52:33;;;;;;;3.93;3.70;;;16.30;97.30;;;;;;4945481;29;20213;-87
2023/09/10 05:54:58;;;;;;;3.53;3.00;;;16.40;97.30;;;;;;4948161;29;20227;-87
2023/09/10 05:57:27;;;;;;;5.73;2.53;;;16.50;97.30;;;;;;4947059;28;20190;-87
2023/09/10 05:59:52;;;;;;;2.93;2.23;;;16.60;97.30;;;;;;4946681;29;20214;-86
2023/09/10 06:02:18;;;;;;;3.63;2.90;;;16.70;97.30;;;;;;4943474;29;20727;-86
2023/09/10 06:04:46;;;;;;;3.43;2.70;;;16.80;97.30;;;;;;4947189;28;20195;-86
2023/09/10 06:07:11;;;;;;;5.97;4.17;;;17.00;97.30;;;;;;4944027;29;20175;-86
2023/09/10 06:09:37;;;;;;;2.90;2.70;;;17.20;97.30;;;;;;4944551;29;20430;-87
2023/09/10 06:12:03;;;;;;;5.70;3.23;;;17.30;97.30;;;;;;4958767;28;20191;-87
2023/09/10 06:14:30;;;;;;;6.10;2.63;;;17.40;97.30;;;;;;4950337;28;20241;-89
2023/09/10 06:16:56;;;;;;;4.00;2.57;;;17.60;97.30;;;;;;4950032;29;20210;-88
2023/09/10 06:19:22;;;;;;;3.43;2.37;;;17.70;97.30;;;;;;4950992;28;20627;-87
2023/09/10 06:21:47;;;;;;;7.00;4.93;;;17.80;97.30;;;;;;4950799;29;20589;-87
2023/09/10 06:24:13;;;;;;;4.90;1.97;;;17.90;97.30;;;;;;4958531;28;20211;-87
2023/09/10 06:26:38;;;;;;;3.00;2.23;;;18.00;97.30;;;;;;4950862;29;20179;-88
2023/09/10 06:29:04;;;;;;;2.33;2.10;;;18.10;97.30;;;;;;4950991;29;20266;-87
2023/09/10 06:31:29;;;;;;;5.33;2.93;;;18.20;97.30;;;;;;4951019;28;20657;-85
2023/09/10 06:33:55;;;;;;;6.93;2.30;;;18.30;97.30;;;;;;4943645;29;20264;-88
2023/09/10 06:36:21;;;;;;;4.10;2.90;;;18.40;97.30;;;;;;4947792;29;20187;-88
2023/09/10 06:38:47;;;;;;;2.63;1.80;;;18.50;97.30;;;;;;4954276;28;20187;-87
2023/09/10 06:41:16;;;;;;;3.07;1.80;;;18.60;97.30;;;;;;4956263;28;20689;-87
2023/09/10 06:43:43;;;;;;;3.40;2.00;;;18.70;97.30;;;;;;4952843;28;20474;-87
2023/09/10 06:46:09;;;;;;;6.33;2.77;;;18.80;97.30;;;;;;4954225;28;20996;-87
2023/09/10 06:48:34;;;;;;;9.60;4.40;;;18.90;97.30;;;;;;4952755;29;20534;-85
2023/09/10 06:51:03;;;;;;;3.13;2.70;;;19.00;97.30;;;;;;4952451;28;20447;-87
2023/09/10 06:53:29;;;;;;;5.43;2.60;;;19.00;97.30;;;;;;4952820;28;20736;-87
2023/09/10 06:55:55;;;;;;;3.13;2.70;;;19.10;97.30;;;;;;4953970;28;20423;-87
2023/09/10 06:58:21;;;;;;;4.57;2.40;;;19.20;97.30;;;;;;4952535;28;20718;-88
2023/09/10 07:00:47;;;;;;;2.57;2.37;;;19.20;97.30;;;;;;4952394;28;20526;-87
2023/09/10 07:03:13;;;;;;;5.60;2.37;;;19.40;97.30;;;;;;4955662;28;20187;-88
2023/09/10 07:05:40;;;;;;;4.13;2.30;;;19.40;97.30;;;;;;4956102;28;20406;-87
2023/09/10 07:08:06;;;;;;;7.43;3.03;;;19.50;97.30;;;;;;4958883;29;20427;-88
2023/09/10 07:10:33;;;;;;;2.60;2.00;;;19.60;97.30;;;;;;4955549;29;20427;-88
2023/09/10 07:12:59;;;;;;;5.53;2.50;;;19.60;97.30;;;;;;4955635;29;20443;-88
2023/09/10 07:15:24;;;;;;;3.20;2.43;;;19.70;97.30;;;;;;4953819;29;20816;-87
2023/09/10 07:17:50;;;;;;;2.30;1.97;;;19.80;97.30;;;;;;4954105;28;20490;-88
2023/09/10 07:20:16;;;;;;;3.10;2.90;;;19.80;97.30;;;;;;4958455;28;20202;-88
2023/09/10 07:22:41;;;;;;;11.27;3.37;;;19.90;97.30;;;;;;4953749;28;20709;-87
2023/09/10 07:25:07;;;;;;;3.77;3.47;;;19.90;97.30;;;;;;4953504;28;20474;-87
2023/09/10 07:27:33;;;;;;;2.60;2.17;;;20.00;97.30;;;;;;4953856;28;20187;-88
2023/09/10 07:29:59;;;;;;;3.80;2.17;;;20.10;97.30;;;;;;4953618;29;20482;-87
2023/09/10 07:32:24;;;;;;;5.07;2.77;;;20.20;97.30;;;;;;4953250;28;20211;-86
2023/09/10 07:34:50;;;;;;;5.97;3.03;;;20.20;97.30;;;;;;4952894;28;20191;-88
2023/09/10 07:37:15;;;;;;;1.70;1.53;;;20.30;97.30;;;;;;4953613;28;20192;-87
2023/09/10 07:39:41;;;;;;;6.43;1.93;;;20.30;97.30;;;;;;4952394;28;20187;-88
2023/09/10 07:42:06;;;;;;;2.73;2.07;;;20.40;97.30;;;;;;4961217;28;20234;-88
2023/09/10 07:44:32;;;;;;;4.30;2.53;;;20.50;97.30;;;;;;4953101;28;20591;-89
2023/09/10 07:46:57;;;;;;;2.10;1.80;;;20.60;97.30;;;;;;4961264;28;20210;-88
2023/09/10 07:49:23;;;;;;;3.00;2.80;;;20.60;97.30;;;;;;4952664;28;20678;-88
2023/09/10 07:51:48;;;;;;;4.30;2.93;;;20.70;97.30;;;;;;4952980;29;20588;-88
2023/09/10 07:54:14;;;;;;;7.13;3.30;;;20.80;97.30;;;;;;4957356;28;20199;-87
2023/09/10 07:56:39;;;;;;;4.90;2.00;;;20.80;97.30;;;;;;4961858;28;20273;-88
2023/09/10 07:59:08;;;;;;;2.20;2.00;;;20.90;97.30;;;;;;4954398;29;20207;-88
2023/09/10 08:01:33;;;;;;;5.40;2.40;;;21.00;97.30;;;;;;4952582;28;20242;-88
2023/09/10 08:03:59;;;;;;;3.87;2.97;;;21.10;97.30;;;;;;4952904;29;20598;-87
2023/09/10 08:06:24;;;;;;;3.00;1.97;;;21.20;97.30;;;;;;4952855;29;20277;-88
2023/09/10 08:08:50;;;;;;;3.40;2.40;;;21.30;97.30;;;;;;4953158;28;20186;-88
2023/09/10 08:11:15;;;;;;;3.33;2.47;;;21.40;97.30;;;;;;4952956;28;20218;-88
2023/09/10 08:13:42;;;;;;;3.00;2.20;;;21.50;97.30;;;;;;4953076;28;20194;-87
2023/09/10 08:16:13;;;;;;;2.13;1.97;;;21.60;97.30;;;;;;4952932;29;20278;-89
2023/09/10 08:18:39;;;;;;;3.50;2.60;;;21.70;97.30;;;;;;4952761;28;20414;-86
2023/09/10 08:21:04;;;;;;;2.60;2.40;;;21.70;97.30;;;;;;4955334;28;20455;-88
2023/09/10 08:23:30;;;;;;;2.47;2.30;;;21.80;97.30;;;;;;4954716;28;20771;-88
2023/09/10 08:25:55;;;;;;;3.23;2.47;;;21.90;97.30;;;;;;4952557;28;20184;-88
2023/09/10 08:28:21;;;;;;;8.70;2.67;;;22.00;97.30;;;;;;4952756;28;20202;-88
2023/09/10 08:30:46;;;;;;;2.87;2.67;;;22.10;97.30;;;;;;4953747;28;20237;-88
2023/09/10 08:33:12;;;;;;;3.40;2.50;;;22.20;97.30;;;;;;4961073;28;20422;-88
2023/09/10 08:35:49;;;;;;;2.03;1.53;;;22.30;97.30;;;;;;4952745;28;20191;-88
2023/09/10 08:38:15;;;;;;;6.20;2.53;;;22.40;97.30;;;;;;4952575;29;20286;-88
2023/09/10 08:41:00;;;;;;;3.00;2.30;;;22.50;97.30;;;;;;4952400;29;20465;-88
2023/09/10 08:43:41;;;;;;;2.80;2.60;;;22.60;97.30;;;;;;4952260;28;20438;-89
2023/09/10 08:46:10;;;;;;;6.00;2.67;;;22.80;97.30;;;;;;4952365;29;20415;-87
2023/09/10 08:48:40;;;;;;;1.80;1.70;;;22.90;97.30;;;;;;4968353;28;20430;-88
2023/09/10 08:51:08;;;;;;;3.40;2.60;;;23.00;97.30;;;;;;4952244;28;20863;-88
2023/09/10 08:53:35;;;;;;;2.70;2.53;;;23.10;97.10;;;;;;4952453;28;20724;-89
2023/09/10 08:56:02;;;;;;;2.50;2.30;;;23.20;96.90;;;;;;4951827;28;20510;-89
2023/09/10 08:58:31;;;;;;;3.73;2.90;;;23.30;96.70;;;;;;4951808;28;20458;-89
2023/09/10 09:00:57;;;;;;;2.67;2.37;;;23.40;96.80;;;;;;4949901;28;20454;-89
2023/09/10 09:03:23;;;;;;;4.30;2.10;;;23.50;96.30;;;;;;4957226;28;20419;-89
2023/09/10 09:05:51;;;;;;;2.07;1.93;;;23.60;95.30;;;;;;4960387;28;20427;-88
2023/09/10 09:08:27;;;;;;;2.70;2.50;;;23.70;95.70;;;;;;4952094;28;20183;-85
2023/09/10 09:10:56;;;;;;;2.50;1.97;;;23.80;95.20;;;;;;4954576;29;20450;-88
2023/09/10 09:13:23;;;;;;;6.13;1.90;;;23.90;95.00;;;;;;4952097;28;20522;-89
2023/09/10 09:15:50;;;;;;;4.80;2.70;;;24.00;95.40;;;;;;4952235;28;20435;-88
2023/09/10 09:18:16;;;;;;;2.17;2.00;;;24.10;95.20;;;;;;4952166;29;20439;-89
2023/09/10 09:20:45;;;;;;;2.17;2.00;;;24.20;94.80;;;;;;4968070;28;20896;-88
2023/09/10 09:23:25;;;;;;;3.70;2.37;;;24.30;94.60;;;;;;4953526;28;20187;-87
2023/09/10 09:25:51;;;;;;;3.10;2.03;;;24.40;95.00;;;;;;4959339;29;20439;-88
2023/09/10 09:28:17;;;;;;;3.03;1.87;;;24.50;94.30;;;;;;4951444;29;20434;-88
2023/09/10 09:30:43;;;;;;;4.40;2.20;;;24.60;94.00;;;;;;4958273;28;20806;-89
2023/09/10 09:33:09;;;;;;;3.40;1.90;;;24.70;93.20;;;;;;4952129;28;20431;-89
2023/09/10 09:35:34;;;;;;;3.83;2.07;;;24.80;93.10;;;;;;4951978;28;20239;-89
2023/09/10 09:38:10;;;;;;;41.80;2.90;;;24.90;92.60;;;;;;4951252;28;20531;-88
2023/09/10 09:40:38;;;;;;;1.93;1.80;;;25.10;91.80;;;;;;4950044;28;20244;-87
2023/09/10 09:43:07;;;;;;;7.20;2.60;;;25.10;90.20;;;;;;4951380;28;20462;-88
2023/09/10 09:45:33;;;;;;;3.17;2.13;;;25.20;88.40;;;;;;4953090;28;20470;-86
2023/09/10 09:47:59;;;;;;;20.47;1.43;;;25.20;89.00;;;;;;4950945;29;20615;-89
2023/09/10 09:50:28;;;;;;;1.50;1.43;;;25.30;89.90;;;;;;4955283;28;20435;-86
2023/09/10 09:52:55;;;;;;;7.30;1.33;;;25.50;89.70;;;;;;4961831;28;20629;-88
2023/09/10 09:55:21;;;;;;;2.33;2.07;;;25.60;89.90;;;;;;4951254;28;21028;-89
2023/09/10 09:57:47;;;;;;;1.60;1.57;;;25.70;89.90;;;;;;4959225;28;20458;-89
2023/09/10 10:00:14;;;;;;;1.83;1.67;;;25.80;89.10;;;;;;4951342;28;20186;-88
2023/09/10 10:02:40;;;;;;;3.23;2.60;;;25.90;89.60;;;;;;4950961;28;21054;-90
2023/09/10 10:05:07;;;;;;;1.90;1.60;;;26.00;89.60;;;;;;4951297;28;20515;-89
2023/09/10 10:07:36;;;;;;;2.67;1.60;;;26.10;89.60;;;;;;4951297;28;20426;-88
2023/09/10 10:10:05;;;;;;;2.60;1.97;;;26.20;89.30;;;;;;4951731;29;20968;-87
2023/09/10 10:12:31;;;;;;;1.30;1.20;;;26.30;88.50;;;;;;4951544;28;20501;-89
2023/09/10 10:15:00;;;;;;;3.00;2.40;;;26.30;87.20;;;;;;4986598;23;20426;-84
2023/09/10 10:17:26;;;;;;;4.30;1.83;;;26.40;86.30;;;;;;4982865;28;20444;-82
2023/09/10 10:19:52;;;;;;;2.53;2.30;;;26.40;85.30;;;;;;4982683;28;20416;-82
2023/09/10 10:22:19;;;;;;;3.77;1.90;;;26.50;86.80;;;;;;4984981;28;20422;-82
2023/09/10 10:24:45;;;;;;;2.17;2.00;;;26.60;86.60;;;;;;4974059;28;21017;-83
2023/09/10 10:27:13;;;;;;;2.67;2.33;;;26.70;86.50;;;;;;4999526;28;20437;-83
2023/09/10 10:29:39;;;;;;;6.97;3.47;;;26.80;86.90;;;;;;4995393;28;21013;-82
2023/09/10 10:32:16;;;;;;;7.40;1.90;;;26.90;85.70;;;;;;4996684;28;20416;-82
2023/09/10 10:34:54;;;;;;;5.10;2.50;;;27.10;85.90;;;;;;4996238;28;20416;-83
2023/09/10 10:37:45;;;;;;;4.70;2.83;;;27.10;84.20;;;;;;4996238;28;20413;-81
2023/09/10 10:40:19;;;;;;;5.07;2.60;;;27.20;85.00;;;;;;4978209;28;20939;-82
2023/09/10 10:42:50;;;;;;;4.00;2.13;;;27.20;84.20;;;;;;4997057;28;20478;-81
2023/09/10 10:45:18;;;;;;;2.03;1.50;;;27.30;84.20;;;;;;4996564;28;20504;-82
2023/09/10 10:47:45;;;;;;;2.20;1.37;;;27.40;85.00;;;;;;4994842;28;20421;-82
2023/09/10 10:50:11;;;;;;;3.97;1.87;;;27.50;83.40;;;;;;4994600;28;20504;-82
2023/09/10 10:53:17;;;;;;;2.03;1.73;;;27.60;84.60;;;;;;4997430;28;20852;-81
2023/09/10 10:55:43;;;;;;;2.10;1.73;;;27.70;82.90;;;;;;4955075;28;20444;-82
2023/09/10 10:58:08;;;;;;;4.07;2.00;;;27.80;83.60;;;;;;4999482;28;20416;-82
2023/09/10 11:00:34;;;;;;;2.70;1.93;;;27.90;82.60;;;;;;5001127;28;20444;-81
2023/09/10 11:03:14;;;;;;;2.57;2.10;;;28.00;82.60;;;;;;4995507;28;20186;-80
2023/09/10 11:06:05;;;;;;;2.73;1.47;;;28.10;82.40;;;;;;4994855;28;20344;-81
2023/09/10 11:08:43;;;;;;;5.43;2.07;;;28.10;81.60;;;;;;4997900;28;20487;-82
2023/09/10 11:11:10;;;;;;;2.70;1.73;;;28.20;79.50;;;;;;4988578;28;20405;-81
2023/09/10 11:14:01;;;;;;;1.73;1.63;;;28.20;80.30;;;;;;4994239;28;20420;-82
2023/09/10 11:16:34;;;;;;;2.10;2.00;;;28.20;79.30;;;;;;4994991;28;20465;-82
2023/09/10 11:19:03;;;;;;;2.80;2.37;;;28.30;80.70;;;;;;5005246;28;20425;-83
2023/09/10 11:21:56;;;;;;;2.40;2.20;;;28.40;82.60;;;;;;4993950;28;20425;-83
2023/09/10 11:24:21;;;;;;;2.00;1.50;;;28.60;79.90;;;;;;4987807;28;20457;-83
2023/09/10 11:26:48;;;;;;;2.00;1.53;;;28.70;78.80;;;;;;4993797;28;20818;-83
2023/09/10 11:29:17;;;;;;;10.10;1.70;;;28.80;79.20;;;;;;4989784;28;20183;-83
2023/09/10 11:31:46;;;;;;;4.17;2.33;;;28.90;77.70;;;;;;4994885;28;20413;-83
2023/09/10 11:34:17;;;;;;;4.17;2.50;;;28.90;78.00;;;;;;4993586;28;20429;-83
2023/09/10 11:36:48;;;;;;;3.50;1.47;;;29.00;78.10;;;;;;4993391;28;20520;-83
2023/09/10 11:39:15;;;;;;;3.70;1.83;;;29.10;79.20;;;;;;4992216;28;20524;-83
2023/09/10 11:41:45;;;;;;;3.20;2.23;;;29.20;78.70;;;;;;4990855;28;20437;-83
2023/09/10 11:44:11;;;;;;;3.27;2.00;;;29.30;79.00;;;;;;4989200;28;20480;-83
2023/09/10 11:46:37;;;;;;;2.70;1.93;;;29.30;78.80;;;;;;4993254;28;20438;-83
2023/09/10 11:49:04;;;;;;;1.53;1.50;;;29.50;78.70;;;;;;4993067;28;20182;-83
2023/09/10 11:51:30;;;;;;;5.00;2.30;;;29.60;78.80;;;;;;4992843;28;20957;-84
2023/09/10 11:53:57;;;;;;;2.20;1.93;;;29.60;77.30;;;;;;4993149;28;20498;-83
2023/09/10 11:56:23;;;;;;;3.50;1.70;;;29.60;75.40;;;;;;4993028;28;21097;-84
2023/09/10 11:58:48;;;;;;;5.07;1.80;;;29.50;75.40;;;;;;4993153;28;20440;-83
2023/09/10 12:01:14;;;;;;;2.70;1.67;;;29.50;75.10;;;;;;4993006;28;20190;-83
2023/09/10 12:03:41;;;;;;;1.47;1.40;;;29.50;76.00;;;;;;4992621;28;20178;-83
2023/09/10 12:06:07;;;;;;;1.93;1.83;;;29.60;76.10;;;;;;4993555;28;20201;-83
2023/09/10 12:08:33;;;;;;;2.50;1.70;;;29.70;75.50;;;;;;4992716;28;20492;-83
2023/09/10 12:11:03;;;;;;;1.73;1.53;;;29.80;74.70;;;;;;5004012;28;20184;-83
2023/09/10 12:13:30;;;;;;;4.87;2.43;;;29.90;75.60;;;;;;4994412;28;20170;-83
2023/09/10 12:15:55;;;;;;;2.90;2.20;;;30.00;75.90;;;;;;4992750;28;21010;-83
2023/09/10 12:18:22;;;;;;;3.90;2.50;;;30.10;73.90;;;;;;4993098;28;20449;-84
2023/09/10 12:20:48;;;;;;;4.57;2.50;;;30.00;73.10;;;;;;4993169;28;20587;-83
2023/09/10 12:23:14;;;;;;;3.83;2.07;;;29.90;73.60;;;;;;4994274;28;20421;-84
2023/09/10 12:25:40;;;;;;;1.70;1.43;;;30.00;75.10;;;;;;4993007;28;20496;-82
2023/09/10 12:28:07;;;;;;;2.77;1.70;;;30.10;76.30;;;;;;4992794;28;20640;-83
2023/09/10 12:30:33;;;;;;;2.60;1.70;;;30.30;75.40;;;;;;5001037;28;20185;-84
2023/09/10 12:33:00;;;;;;;2.60;2.40;;;30.40;74.90;;;;;;4992777;28;20425;-83
2023/09/10 12:35:26;;;;;;;1.90;1.80;;;30.50;75.00;;;;;;4993901;28;21077;-84
2023/09/10 12:37:53;;;;;;;5.47;2.20;;;30.70;75.80;;;;;;4992975;28;20457;-83
2023/09/10 12:40:20;;;;;;;3.97;2.50;;;30.80;74.70;;;;;;4989054;28;20189;-83
2023/09/10 12:42:46;;;;;;;3.70;2.20;;;30.90;74.70;;;;;;4993404;28;20417;-84
2023/09/10 12:45:14;;;;;;;3.27;1.70;;;31.00;73.20;;;;;;4992024;28;20469;-84
2023/09/10 12:47:39;;;;;;;2.13;2.03;;;30.90;72.60;;;;;;4992251;28;21026;-84
2023/09/10 12:50:06;;;;;;;2.77;1.77;;;30.80;72.40;;;;;;4993420;28;20445;-84
2023/09/10 12:52:33;;;;;;;2.47;1.50;;;30.90;74.20;;;;;;4993399;28;20182;-83
2023/09/10 12:54:58;;;;;;;1.87;1.53;;;31.10;72.90;;;;;;4992379;28;20428;-84
2023/09/10 12:57:24;;;;;;;1.50;1.40;;;31.20;72.30;;;;;;4993647;28;20420;-83
2023/09/10 12:59:56;;;;;;;1.70;1.60;;;31.30;73.40;;;;;;4992018;28;20659;-84
2023/09/10 13:02:33;;;;;;;4.53;2.03;;;31.40;72.00;;;;;;4992272;28;20173;-83
2023/09/10 13:04:58;;;;;;;1.90;1.73;;;31.50;73.30;;;;;;4993442;28;20510;-83
2023/09/10 13:07:24;;;;;;;1.87;1.50;;;31.50;73.10;;;;;;4994003;28;20433;-84
2023/09/10 13:09:50;;;;;;;2.20;1.47;;;31.60;73.20;;;;;;4993613;28;20268;-84
2023/09/10 13:12:15;;;;;;;2.43;2.27;;;31.70;72.60;;;;;;4992106;28;20213;-83
2023/09/10 13:14:41;;;;;;;1.83;1.47;;;31.70;73.30;;;;;;4992481;28;20182;-83
2023/09/10 13:17:07;;;;;;;1.53;1.43;;;31.70;73.50;;;;;;4993510;28;20245;-84
2023/09/10 13:19:32;;;;;;;4.00;1.67;;;31.80;74.00;;;;;;4994514;28;20217;-84
2023/09/10 13:21:58;;;;;;;4.93;1.90;;;31.90;72.90;;;;;;4992457;28;20980;-84
2023/09/10 13:24:24;;;;;;;2.73;1.90;;;32.00;71.90;;;;;;4992235;28;20695;-84
2023/09/10 13:26:50;;;;;;;1.63;1.10;;;32.10;72.00;;;;;;4992303;28;20201;-83
2023/09/10 13:29:15;;;;;;;1.83;1.57;;;32.20;72.50;;;;;;4993286;28;20496;-84
2023/09/10 13:31:41;;;;;;;3.23;1.77;;;32.40;72.70;;;;;;4991894;28;20181;-84
2023/09/10 13:34:06;;;;;;;1.80;1.40;;;32.50;72.20;;;;;;4991488;28;20185;-83
2023/09/10 13:36:32;;;;;;;1.90;1.80;;;32.50;71.30;;;;;;4991309;28;20198;-84
2023/09/10 13:38:58;;;;;;;2.30;1.60;;;32.50;68.30;;;;;;4992606;28;20188;-84
2023/09/10 13:41:23;;;;;;;2.57;1.80;;;32.40;69.30;;;;;;4991359;28;20288;-83
2023/09/10 13:43:50;;;;;;;4.03;1.83;;;32.30;69.70;;;;;;4992541;28;20188;-84
2023/09/10 13:46:16;;;;;;;1.23;1.10;;;32.20;69.20;;;;;;4996963;28;20256;-84
2023/09/10 13:48:42;;;;;;;2.90;1.63;;;32.00;70.20;;;;;;4994971;28;20943;-83
2023/09/10 13:51:08;;;;;;;2.07;1.87;;;32.10;71.70;;;;;;4992937;28;20676;-84
2023/09/10 13:53:35;;;;;;;3.70;2.27;;;32.20;71.00;;;;;;4993030;28;20182;-83
2023/09/10 13:56:00;;;;;;;2.50;1.83;;;32.20;70.00;;;;;;5000871;28;20527;-84
2023/09/10 13:58:26;;;;;;;3.87;2.60;;;32.30;70.80;;;;;;4991717;28;20456;-84
2023/09/10 14:00:51;;;;;;;1.93;1.87;;;32.40;70.70;;;;;;4990505;28;20178;-83
2023/09/10 14:03:17;;;;;;;1.30;1.20;;;32.30;69.80;;;;;;4991428;28;20674;-84
2023/09/10 14:05:43;;;;;;;3.70;1.90;;;32.40;70.40;;;;;;4992258;28;20213;-83
2023/09/10 14:08:08;;;;;;;2.60;1.77;;;32.50;70.60;;;;;;4999557;28;20192;-83
2023/09/10 14:10:34;;;;;;;1.97;1.30;;;32.50;69.70;;;;;;4991280;28;20252;-84
2023/09/10 14:12:59;;;;;;;2.73;2.40;;;32.50;69.30;;;;;;4992169;28;20199;-84
2023/09/10 14:15:25;;;;;;;1.27;1.17;;;32.50;70.50;;;;;;4991185;28;20259;-84
2023/09/10 14:17:50;;;;;;;2.37;1.80;;;32.60;69.60;;;;;;4991463;28;20269;-80
2023/09/10 14:20:16;;;;;;;2.73;2.03;;;32.80;70.60;;;;;;4991535;28;20182;-83
2023/09/10 14:22:41;;;;;;;2.67;1.77;;;33.00;71.70;;;;;;4991211;28;20264;-83
2023/09/10 14:25:12;;;;;;;3.27;1.80;;;33.10;70.70;;;;;;4989533;28;20873;-84
2023/09/10 14:27:38;;;;;;;1.90;1.60;;;33.20;68.20;;;;;;4989305;28;20182;-84
2023/09/10 14:30:06;;;;;;;1.80;1.80;;;33.30;69.20;;;;;;4990380;28;20878;-84
2023/09/10 14:32:31;;;;;;;3.07;1.77;;;33.40;69.50;;;;;;4989310;28;20424;-85
2023/09/10 14:34:57;;;;;;;1.63;1.57;;;33.50;70.40;;;;;;4997067;28;20528;-84
2023/09/10 14:37:23;;;;;;;2.33;2.07;;;33.50;70.50;;;;;;4988879;28;20186;-84
2023/09/10 14:39:48;;;;;;;1.77;1.60;;;33.60;69.80;;;;;;4989389;28;20329;-84
2023/09/10 14:42:14;;;;;;;1.57;1.40;;;33.60;69.30;;;;;;4989084;28;20281;-84
2023/09/10 14:44:39;;;;;;;1.77;1.53;;;33.70;69.10;;;;;;4989050;28;20311;-85
2023/09/10 14:47:05;;;;;;;1.87;1.77;;;33.70;68.70;;;;;;4989885;28;20289;-84
2023/09/10 14:49:31;;;;;;;3.00;2.47;;;33.60;68.20;;;;;;4990212;28;20186;-83
2023/09/10 14:51:56;;;;;;;1.67;1.57;;;33.50;68.60;;;;;;4988891;28;20365;-85
2023/09/10 14:54:22;;;;;;;6.00;1.87;;;33.50;68.10;;;;;;4989138;28;20201;-84
2023/09/10 14:56:47;;;;;;;1.67;1.60;;;33.50;68.50;;;;;;4990239;28;20209;-85
2023/09/10 14:59:13;;;;;;;4.73;2.50;;;33.60;68.70;;;;;;4989129;28;20239;-84
2023/09/10 15:01:39;;;;;;;3.07;2.33;;;33.70;69.50;;;;;;4992719;28;20186;-84
2023/09/10 15:04:04;;;;;;;3.90;1.77;;;33.70;70.30;;;;;;4992315;28;20214;-84
2023/09/10 15:06:30;;;;;;;2.13;1.97;;;33.70;69.70;;;;;;4992615;28;20714;-84
2023/09/10 15:08:56;;;;;;;2.93;2.63;;;33.80;68.20;;;;;;4992324;28;20187;-84
2023/09/10 15:11:21;;;;;;;1.93;1.83;;;33.60;67.30;;;;;;4992475;28;20173;-85
2023/09/10 15:13:47;;;;;;;2.20;1.60;;;33.40;67.40;;;;;;4992189;28;20189;-84
2023/09/10 15:16:13;;;;;;;1.33;1.27;;;33.30;68.70;;;;;;4993462;28;20299;-84
2023/09/10 15:18:38;;;;;;;3.17;1.77;;;33.30;68.00;;;;;;4991999;28;20221;-83
2023/09/10 15:21:04;;;;;;;3.97;2.73;;;33.40;69.00;;;;;;4980952;28;20191;-83
2023/09/10 15:23:30;;;;;;;2.33;1.83;;;33.50;68.70;;;;;;4990907;28;20281;-82
2023/09/10 15:25:55;;;;;;;4.30;2.13;;;33.60;68.60;;;;;;4994094;28;20288;-84
2023/09/10 15:28:21;;;;;;;1.70;1.60;;;33.50;67.50;;;;;;4992630;28;20188;-84
2023/09/10 15:30:47;;;;;;;1.53;1.50;;;33.40;67.90;;;;;;4992362;28;20178;-85
2023/09/10 15:33:12;;;;;;;1.93;1.53;;;33.40;68.30;;;;;;4992304;28;20221;-84
2023/09/10 15:35:38;;;;;;;4.50;2.30;;;33.50;68.90;;;;;;4993329;28;20304;-83
2023/09/10 15:38:04;;;;;;;1.47;1.30;;;33.50;68.60;;;;;;4990926;28;20186;-84
2023/09/10 15:40:29;;;;;;;1.97;1.87;;;33.50;69.00;;;;;;4992299;28;20217;-83
2023/09/10 15:42:55;;;;;;;1.90;1.50;;;33.60;69.50;;;;;;4993421;28;20193;-83
2023/09/10 15:45:20;;;;;;;1.50;1.40;;;33.60;69.90;;;;;;4997126;28;20247;-84
2023/09/10 15:47:46;;;;;;;2.03;1.80;;;33.70;69.80;;;;;;4996926;28;20236;-84
2023/09/10 15:50:12;;;;;;;1.57;1.47;;;33.70;69.80;;;;;;4997953;28;20173;-86
2023/09/10 15:52:37;;;;;;;6.10;1.73;;;33.70;70.30;;;;;;5009470;28;20181;-84
2023/09/10 15:55:03;;;;;;;2.07;1.70;;;33.70;69.50;;;;;;5007083;28;20574;-85
2023/09/10 15:57:29;;;;;;;2.50;1.90;;;33.70;69.10;;;;;;5000523;28;20188;-84
2023/09/10 15:59:55;;;;;;;1.43;1.33;;;33.70;68.60;;;;;;5002454;28;20464;-84
2023/09/10 16:02:26;;;;;;;3.50;1.37;;;33.70;67.90;;;;;;4994113;28;20174;-84
2023/09/10 16:04:53;;;;;;;2.37;1.73;;;33.60;67.30;;;;;;4996861;28;20582;-83
2023/09/10 16:07:19;;;;;;;2.70;1.60;;;33.40;67.00;;;;;;5002729;28;20401;-85
2023/09/10 16:09:44;;;;;;;3.27;2.27;;;33.40;67.90;;;;;;4996652;28;20945;-85
2023/09/10 16:12:11;;;;;;;4.30;1.90;;;33.30;68.90;;;;;;4993560;28;20405;-84
2023/09/10 16:14:37;;;;;;;2.30;1.93;;;33.30;69.20;;;;;;4992669;28;20189;-83
2023/09/10 16:17:03;;;;;;;3.33;1.73;;;33.30;70.90;;;;;;5015059;23;20504;-71
2023/09/10 16:19:30;;;;;;;2.67;1.83;;;33.30;70.00;;;;;;4986506;28;20200;-71
2023/09/10 16:21:56;;;;;;;1.87;1.73;;;33.30;70.60;;;;;;4988179;28;20441;-71
2023/09/10 16:24:21;;;;;;;2.70;2.10;;;33.30;71.10;;;;;;4981752;28;20468;-71
2023/09/10 16:26:47;;;;;;;1.40;1.17;;;33.20;71.70;;;;;;4988971;28;20852;-71
2023/09/10 16:29:12;;;;;;;3.83;1.90;;;33.00;72.90;;;;;;4988518;28;20684;-71
2023/09/10 16:31:38;;;;;;;3.80;1.70;;;32.90;73.00;;;;;;4986709;28;20226;-71
2023/09/10 16:34:04;;;;;;;2.50;1.70;;;32.80;72.90;;;;;;4979570;28;20265;-71
2023/09/10 16:36:33;;;;;;;2.00;1.90;;;32.60;73.20;;;;;;4981577;28;20244;-71
2023/09/10 16:38:59;;;;;;;2.07;1.93;;;32.40;73.30;;;;;;4988764;28;20221;-71
2023/09/10 16:41:25;;;;;;;1.93;1.63;;;32.30;73.70;;;;;;4982392;28;20484;-71
2023/09/10 16:43:50;;;;;;;4.20;2.20;;;32.00;74.00;;;;;;4983390;28;20977;-71